sensor_id;sensor_type;location;lat;lon;timestamp;pressure;altitude;pressure_sealevel;temperature;humidity
25638;BME280;13496;51.040;13.680;2023-04-21T00:01:29;99929.38;;;18.21;53.91
25638;BME280;13496;51.040;13.680;2023-04-21T00:06:33;99923.28;;;18.20;53.79
25638;BME280;13496;51.040;13.680;2023-04-21T00:11:34;99923.00;;;18.15;53.81
25638;BME280;13496;51.040;13.680;2023-04-21T00:16:36;99916.75;;;18.16;53.70
25638;BME280;13496;51.040;13.680;2023-04-21T00:21:38;99915.31;;;18.13;53.76
25638;BME280;13496;51.040;13.680;2023-04-21T00:26:39;99913.31;;;18.16;53.71
25638;BME280;13496;51.040;13.680;2023-04-21T00:31:42;99915.50;;;18.12;53.67
25638;BME280;13496;51.040;13.680;2023-04-21T00:36:43;99917.09;;;18.13;53.90
25638;BME280;13496;51.040;13.680;2023-04-21T00:41:46;99919.72;;;18.13;54.08
25638;BME280;13496;51.040;13.680;2023-04-21T00:46:48;99904.97;;;18.12;53.98
25638;BME280;13496;51.040;13.680;2023-04-21T00:51:50;99908.78;;;18.09;54.04
25638;BME280;13496;51.040;13.680;2023-04-21T00:56:53;99902.72;;;18.09;53.84
25638;BME280;13496;51.040;13.680;2023-04-21T01:01:55;99904.53;;;18.08;53.61
25638;BME280;13496;51.040;13.680;2023-04-21T01:06:57;99897.19;;;18.04;53.85
25638;BME280;13496;51.040;13.680;2023-04-21T01:12:00;99895.38;;;18.04;54.04
25638;BME280;13496;51.040;13.680;2023-04-21T01:17:03;99896.19;;;18.05;54.03
25638;BME280;13496;51.040;13.680;2023-04-21T01:22:08;99892.97;;;18.03;53.94
25638;BME280;13496;51.040;13.680;2023-04-21T01:27:14;99887.69;;;18.03;54.08
25638;BME280;13496;51.040;13.680;2023-04-21T01:32:19;99898.38;;;18.01;54.01
25638;BME280;13496;51.040;13.680;2023-04-21T01:37:25;99890.69;;;18.00;53.82
25638;BME280;13496;51.040;13.680;2023-04-21T01:42:28;99887.25;;;17.99;54.02
25638;BME280;13496;51.040;13.680;2023-04-21T01:47:30;99883.16;;;17.97;53.80
25638;BME280;13496;51.040;13.680;2023-04-21T01:52:32;99881.53;;;17.96;54.12
25638;BME280;13496;51.040;13.680;2023-04-21T01:57:33;99874.63;;;17.95;53.78
25638;BME280;13496;51.040;13.680;2023-04-21T02:02:35;99875.47;;;17.95;53.92
25638;BME280;13496;51.040;13.680;2023-04-21T02:07:37;99877.91;;;17.97;53.69
25638;BME280;13496;51.040;13.680;2023-04-21T02:12:38;99873.03;;;17.94;53.67
25638;BME280;13496;51.040;13.680;2023-04-21T02:17:40;99870.75;;;17.90;53.99
25638;BME280;13496;51.040;13.680;2023-04-21T02:22:45;99866.16;;;17.93;53.73
25638;BME280;13496;51.040;13.680;2023-04-21T02:27:46;99864.53;;;17.92;53.77
25638;BME280;13496;51.040;13.680;2023-04-21T02:32:48;99861.25;;;17.89;53.72
25638;BME280;13496;51.040;13.680;2023-04-21T02:37:49;99865.03;;;17.87;53.92
25638;BME280;13496;51.040;13.680;2023-04-21T02:42:51;99863.25;;;17.87;54.12
25638;BME280;13496;51.040;13.680;2023-04-21T02:47:53;99868.50;;;17.87;53.72
25638;BME280;13496;51.040;13.680;2023-04-21T02:52:54;99868.88;;;17.84;54.07
25638;BME280;13496;51.040;13.680;2023-04-21T02:57:56;99873.75;;;17.87;53.62
25638;BME280;13496;51.040;13.680;2023-04-21T03:02:58;99874.47;;;17.81;54.04
25638;BME280;13496;51.040;13.680;2023-04-21T03:08:00;99872.47;;;17.83;53.82
25638;BME280;13496;51.040;13.680;2023-04-21T03:13:02;99867.22;;;17.83;53.86
25638;BME280;13496;51.040;13.680;2023-04-21T03:18:06;99876.91;;;17.83;53.83
25638;BME280;13496;51.040;13.680;2023-04-21T03:23:08;99865.94;;;17.79;54.00
25638;BME280;13496;51.040;13.680;2023-04-21T03:28:09;99860.09;;;17.77;53.95
25638;BME280;13496;51.040;13.680;2023-04-21T03:33:11;99859.28;;;17.77;53.88
25638;BME280;13496;51.040;13.680;2023-04-21T03:38:13;99858.47;;;17.76;54.20
25638;BME280;13496;51.040;13.680;2023-04-21T03:43:14;99862.06;;;17.75;53.98
25638;BME280;13496;51.040;13.680;2023-04-21T03:48:16;99860.41;;;17.74;53.81
25638;BME280;13496;51.040;13.680;2023-04-21T03:53:18;99866.34;;;17.76;53.84
25638;BME280;13496;51.040;13.680;2023-04-21T03:58:19;99869.28;;;17.73;54.00
25638;BME280;13496;51.040;13.680;2023-04-21T04:03:21;99878.78;;;17.74;53.83
25638;BME280;13496;51.040;13.680;2023-04-21T04:08:23;99883.38;;;17.72;53.83
25638;BME280;13496;51.040;13.680;2023-04-21T04:13:24;99896.50;;;17.72;54.11
25638;BME280;13496;51.040;13.680;2023-04-21T04:18:27;99885.19;;;17.72;53.74
25638;BME280;13496;51.040;13.680;2023-04-21T04:23:28;99889.63;;;17.71;54.14
25638;BME280;13496;51.040;13.680;2023-04-21T04:28:30;99896.50;;;17.72;54.31
25638;BME280;13496;51.040;13.680;2023-04-21T04:33:32;99891.25;;;17.72;54.33
25638;BME280;13496;51.040;13.680;2023-04-21T04:38:33;99890.44;;;17.72;54.23
25638;BME280;13496;51.040;13.680;2023-04-21T04:43:37;99893.72;;;17.74;54.02
25638;BME280;13496;51.040;13.680;2023-04-21T04:48:44;99895.53;;;17.73;54.03
25638;BME280;13496;51.040;13.680;2023-04-21T04:53:46;99892.91;;;17.73;54.30
25638;BME280;13496;51.040;13.680;2023-04-21T04:58:47;99888.47;;;17.74;53.93
25638;BME280;13496;51.040;13.680;2023-04-21T05:03:49;99891.25;;;17.72;54.05
25638;BME280;13496;51.040;13.680;2023-04-21T05:08:50;99896.19;;;17.75;53.91
25638;BME280;13496;51.040;13.680;2023-04-21T05:13:52;99899.44;;;17.77;54.21
25638;BME280;13496;51.040;13.680;2023-04-21T05:18:54;99901.41;;;17.75;54.24
25638;BME280;13496;51.040;13.680;2023-04-21T05:23:57;99905.31;;;17.79;54.15
25638;BME280;13496;51.040;13.680;2023-04-21T05:28:59;99919.28;;;17.80;53.91
25638;BME280;13496;51.040;13.680;2023-04-21T05:34:00;99907.94;;;17.79;54.26
25638;BME280;13496;51.040;13.680;2023-04-21T05:39:02;99916.47;;;17.81;53.92
25638;BME280;13496;51.040;13.680;2023-04-21T05:44:04;99915.31;;;17.84;53.91
25638;BME280;13496;51.040;13.680;2023-04-21T05:49:05;99903.00;;;17.84;53.82
25638;BME280;13496;51.040;13.680;2023-04-21T05:54:07;99908.84;;;17.86;53.95
25638;BME280;13496;51.040;13.680;2023-04-21T05:59:08;99906.53;;;17.92;54.12
25638;BME280;13496;51.040;13.680;2023-04-21T06:04:10;99902.91;;;17.93;54.00
25638;BME280;13496;51.040;13.680;2023-04-21T06:09:12;99904.53;;;17.94;54.33
25638;BME280;13496;51.040;13.680;2023-04-21T06:14:16;99902.34;;;17.97;53.86
25638;BME280;13496;51.040;13.680;2023-04-21T06:19:17;99893.66;;;17.97;54.02
25638;BME280;13496;51.040;13.680;2023-04-21T06:24:19;99895.28;;;17.98;54.03
25638;BME280;13496;51.040;13.680;2023-04-21T06:29:25;99882.81;;;18.00;54.04
25638;BME280;13496;51.040;13.680;2023-04-21T06:34:27;99882.47;;;18.03;54.11
25638;BME280;13496;51.040;13.680;2023-04-21T06:39:28;99883.06;;;18.05;53.93
25638;BME280;13496;51.040;13.680;2023-04-21T06:44:30;99886.59;;;18.12;54.05
25638;BME280;13496;51.040;13.680;2023-04-21T06:49:32;99885.25;;;18.16;54.03
25638;BME280;13496;51.040;13.680;2023-04-21T06:54:34;99880.28;;;18.21;53.87
25638;BME280;13496;51.040;13.680;2023-04-21T06:59:36;99882.72;;;18.23;53.86
25638;BME280;13496;51.040;13.680;2023-04-21T07:04:38;99886.44;;;18.28;54.06
25638;BME280;13496;51.040;13.680;2023-04-21T07:09:39;99882.44;;;18.32;53.96
25638;BME280;13496;51.040;13.680;2023-04-21T07:14:41;99877.81;;;18.34;53.78
25638;BME280;13496;51.040;13.680;2023-04-21T07:19:43;99880.06;;;18.37;53.78
25638;BME280;13496;51.040;13.680;2023-04-21T07:24:44;99882.34;;;18.41;53.74
25638;BME280;13496;51.040;13.680;2023-04-21T07:29:46;99874.09;;;18.44;53.55
25638;BME280;13496;51.040;13.680;2023-04-21T07:34:47;99870.09;;;18.48;53.69
25638;BME280;13496;51.040;13.680;2023-04-21T07:39:50;99874.78;;;18.52;53.64
25638;BME280;13496;51.040;13.680;2023-04-21T07:44:52;99856.03;;;18.55;53.67
25638;BME280;13496;51.040;13.680;2023-04-21T07:49:54;99856.28;;;18.60;53.58
25638;BME280;13496;51.040;13.680;2023-04-21T07:54:55;99851.31;;;18.66;53.37
25638;BME280;13496;51.040;13.680;2023-04-21T07:59:57;99856.84;;;18.71;53.18
25638;BME280;13496;51.040;13.680;2023-04-21T08:04:59;99853.84;;;18.74;53.09
25638;BME280;13496;51.040;13.680;2023-04-21T08:10:00;99849.63;;;18.79;53.34
25638;BME280;13496;51.040;13.680;2023-04-21T08:15:03;99841.56;;;18.81;53.22
25638;BME280;13496;51.040;13.680;2023-04-21T08:20:09;99837.56;;;18.85;53.49
25638;BME280;13496;51.040;13.680;2023-04-21T08:25:10;99839.63;;;18.90;53.16
25638;BME280;13496;51.040;13.680;2023-04-21T08:30:13;99840.06;;;18.93;53.22
25638;BME280;13496;51.040;13.680;2023-04-21T08:35:14;99830.81;;;18.97;53.21
25638;BME280;13496;51.040;13.680;2023-04-21T08:40:17;99828.97;;;18.98;53.14
25638;BME280;13496;51.040;13.680;2023-04-21T08:45:19;99820.13;;;18.99;53.14
25638;BME280;13496;51.040;13.680;2023-04-21T08:50:25;99818.53;;;19.04;53.29
25638;BME280;13496;51.040;13.680;2023-04-21T08:55:29;99815.53;;;19.07;53.39
25638;BME280;13496;51.040;13.680;2023-04-21T09:00:31;99810.06;;;19.09;53.03
25638;BME280;13496;51.040;13.680;2023-04-21T09:05:34;99809.69;;;19.12;53.20
25638;BME280;13496;51.040;13.680;2023-04-21T09:10:43;99804.06;;;19.15;53.32
25638;BME280;13496;51.040;13.680;2023-04-21T09:15:49;99810.38;;;19.21;53.39
25638;BME280;13496;51.040;13.680;2023-04-21T09:21:18;99804.53;;;19.25;53.50
25638;BME280;13496;51.040;13.680;2023-04-21T09:26:21;99805.78;;;19.29;53.16
25638;BME280;13496;51.040;13.680;2023-04-21T09:31:23;99801.78;;;19.33;53.25
25638;BME280;13496;51.040;13.680;2023-04-21T09:36:27;99791.25;;;19.33;53.31
25638;BME280;13496;51.040;13.680;2023-04-21T09:41:30;99793.72;;;19.42;53.08
25638;BME280;13496;51.040;13.680;2023-04-21T09:46:34;99786.47;;;19.44;53.12
25638;BME280;13496;51.040;13.680;2023-04-21T09:51:36;99781.63;;;19.47;52.84
25638;BME280;13496;51.040;13.680;2023-04-21T09:56:39;99782.22;;;19.49;52.81
25638;BME280;13496;51.040;13.680;2023-04-21T10:01:42;99777.00;;;19.56;52.87
25638;BME280;13496;51.040;13.680;2023-04-21T10:06:46;99791.22;;;19.62;52.64
25638;BME280;13496;51.040;13.680;2023-04-21T10:11:48;99770.59;;;19.65;53.07
25638;BME280;13496;51.040;13.680;2023-04-21T10:17:05;99763.13;;;19.69;52.68
25638;BME280;13496;51.040;13.680;2023-04-21T10:22:08;99766.00;;;19.74;52.44
25638;BME280;13496;51.040;13.680;2023-04-21T10:27:30;99759.13;;;19.79;52.57
25638;BME280;13496;51.040;13.680;2023-04-21T10:32:42;99745.97;;;19.79;52.63
25638;BME280;13496;51.040;13.680;2023-04-21T10:37:47;99756.75;;;19.85;52.29
25638;BME280;13496;51.040;13.680;2023-04-21T10:42:49;99751.09;;;19.88;52.38
25638;BME280;13496;51.040;13.680;2023-04-21T10:47:52;99748.66;;;19.93;52.17
25638;BME280;13496;51.040;13.680;2023-04-21T10:57:55;99742.81;;;19.97;52.21
25638;BME280;13496;51.040;13.680;2023-04-21T11:03:02;99745.09;;;20.07;52.25
25638;BME280;13496;51.040;13.680;2023-04-21T11:08:05;99742.44;;;20.07;52.29
25638;BME280;13496;51.040;13.680;2023-04-21T11:13:07;99737.19;;;20.07;51.88
25638;BME280;13496;51.040;13.680;2023-04-21T11:18:08;99734.56;;;20.14;52.33
25638;BME280;13496;51.040;13.680;2023-04-21T11:23:16;99737.00;;;20.15;52.30
25638;BME280;13496;51.040;13.680;2023-04-21T11:28:20;99727.09;;;20.17;51.71
25638;BME280;13496;51.040;13.680;2023-04-21T11:33:22;99729.28;;;20.20;52.26
25638;BME280;13496;51.040;13.680;2023-04-21T11:38:36;99725.66;;;20.21;52.24
25638;BME280;13496;51.040;13.680;2023-04-21T11:43:38;99720.81;;;20.31;51.94
25638;BME280;13496;51.040;13.680;2023-04-21T11:48:42;99713.31;;;20.28;51.77
25638;BME280;13496;51.040;13.680;2023-04-21T11:53:47;99714.94;;;20.29;51.96
25638;BME280;13496;51.040;13.680;2023-04-21T11:58:49;99709.88;;;20.35;51.68
25638;BME280;13496;51.040;13.680;2023-04-21T12:03:53;99704.41;;;20.43;51.70
25638;BME280;13496;51.040;13.680;2023-04-21T12:08:59;99701.19;;;20.41;51.42
25638;BME280;13496;51.040;13.680;2023-04-21T12:14:01;99699.53;;;20.46;51.79
25638;BME280;13496;51.040;13.680;2023-04-21T12:19:03;99692.88;;;20.44;51.87
25638;BME280;13496;51.040;13.680;2023-04-21T12:24:05;99699.75;;;20.45;52.02
25638;BME280;13496;51.040;13.680;2023-04-21T12:29:06;99687.19;;;20.47;51.65
25638;BME280;13496;51.040;13.680;2023-04-21T12:34:08;99688.63;;;20.49;51.65
25638;BME280;13496;51.040;13.680;2023-04-21T12:39:10;99677.06;;;20.57;51.57
25638;BME280;13496;51.040;13.680;2023-04-21T12:44:12;99681.94;;;20.60;51.70
25638;BME280;13496;51.040;13.680;2023-04-21T12:49:14;99678.69;;;20.65;51.33
25638;BME280;13496;51.040;13.680;2023-04-21T12:54:17;99682.75;;;20.67;51.14
25638;BME280;13496;51.040;13.680;2023-04-21T12:59:19;99674.63;;;20.69;51.22
25638;BME280;13496;51.040;13.680;2023-04-21T13:04:20;99666.31;;;20.72;51.32
25638;BME280;13496;51.040;13.680;2023-04-21T13:09:22;99657.22;;;20.74;50.98
25638;BME280;13496;51.040;13.680;2023-04-21T13:14:24;99662.88;;;20.78;51.19
25638;BME280;13496;51.040;13.680;2023-04-21T13:19:26;99653.53;;;20.82;51.22
25638;BME280;13496;51.040;13.680;2023-04-21T13:24:28;99654.97;;;20.85;51.16
25638;BME280;13496;51.040;13.680;2023-04-21T13:29:31;99662.47;;;20.88;51.06
25638;BME280;13496;51.040;13.680;2023-04-21T13:34:34;99646.03;;;20.92;50.95
25638;BME280;13496;51.040;13.680;2023-04-21T13:39:37;99640.53;;;20.94;50.77
25638;BME280;13496;51.040;13.680;2023-04-21T13:44:38;99634.84;;;20.97;50.86
25638;BME280;13496;51.040;13.680;2023-04-21T13:49:40;99620.63;;;20.98;50.80
25638;BME280;13496;51.040;13.680;2023-04-21T13:54:42;99622.28;;;20.99;50.76
25638;BME280;13496;51.040;13.680;2023-04-21T13:59:44;99613.34;;;21.00;50.54
25638;BME280;13496;51.040;13.680;2023-04-21T14:04:46;99606.81;;;21.09;50.97
25638;BME280;13496;51.040;13.680;2023-04-21T14:09:49;99601.75;;;21.14;50.46
25638;BME280;13496;51.040;13.680;2023-04-21T14:14:51;99589.75;;;21.18;50.45
25638;BME280;13496;51.040;13.680;2023-04-21T14:19:52;99587.28;;;21.23;50.37
25638;BME280;13496;51.040;13.680;2023-04-21T14:24:54;99580.75;;;21.33;50.06
25638;BME280;13496;51.040;13.680;2023-04-21T14:29:56;99572.66;;;21.34;49.87
25638;BME280;13496;51.040;13.680;2023-04-21T14:34:59;99581.56;;;21.40;49.90
25638;BME280;13496;51.040;13.680;2023-04-21T14:40:05;99566.94;;;21.44;49.93
25638;BME280;13496;51.040;13.680;2023-04-21T14:45:08;99573.97;;;21.50;49.64
25638;BME280;13496;51.040;13.680;2023-04-21T14:50:09;99570.13;;;21.53;49.61
25638;BME280;13496;51.040;13.680;2023-04-21T14:55:11;99566.84;;;21.57;49.71
25638;BME280;13496;51.040;13.680;2023-04-21T15:00:13;99569.31;;;21.52;49.71
25638;BME280;13496;51.040;13.680;2023-04-21T15:05:15;99553.47;;;21.52;49.83
25638;BME280;13496;51.040;13.680;2023-04-21T15:10:16;99550.41;;;21.55;49.87
25638;BME280;13496;51.040;13.680;2023-04-21T15:15:18;99549.56;;;21.61;49.69
25638;BME280;13496;51.040;13.680;2023-04-21T15:20:20;99548.75;;;21.61;49.87
25638;BME280;13496;51.040;13.680;2023-04-21T15:25:22;99548.56;;;21.62;49.74
25638;BME280;13496;51.040;13.680;2023-04-21T15:30:23;99547.50;;;21.63;50.07
25638;BME280;13496;51.040;13.680;2023-04-21T15:35:25;99539.97;;;21.67;49.95
25638;BME280;13496;51.040;13.680;2023-04-21T15:40:27;99537.72;;;21.70;49.99
25638;BME280;13496;51.040;13.680;2023-04-21T15:45:29;99532.03;;;21.73;49.32
25638;BME280;13496;51.040;13.680;2023-04-21T15:50:30;99532.19;;;21.79;49.57
25638;BME280;13496;51.040;13.680;2023-04-21T15:55:32;99518.34;;;21.77;50.01
25638;BME280;13496;51.040;13.680;2023-04-21T16:00:34;99531.75;;;21.82;49.63
25638;BME280;13496;51.040;13.680;2023-04-21T16:05:35;99526.66;;;21.80;49.87
25638;BME280;13496;51.040;13.680;2023-04-21T16:10:37;99533.41;;;21.76;49.88
25638;BME280;13496;51.040;13.680;2023-04-21T16:15:39;99526.50;;;21.75;50.04
25638;BME280;13496;51.040;13.680;2023-04-21T16:20:41;99519.25;;;21.70;50.46
25638;BME280;13496;51.040;13.680;2023-04-21T16:25:44;99516.00;;;21.68;50.21
25638;BME280;13496;51.040;13.680;2023-04-21T16:30:46;99515.84;;;21.63;50.56
25638;BME280;13496;51.040;13.680;2023-04-21T16:35:48;99519.28;;;21.64;50.51
25638;BME280;13496;51.040;13.680;2023-04-21T16:40:52;99524.97;;;21.61;50.64
25638;BME280;13496;51.040;13.680;2023-04-21T16:45:54;99524.78;;;21.62;50.30
25638;BME280;13496;51.040;13.680;2023-04-21T16:50:55;99514.22;;;21.62;50.47
25638;BME280;13496;51.040;13.680;2023-04-21T16:55:57;99506.31;;;21.62;50.58
25638;BME280;13496;51.040;13.680;2023-04-21T17:00:59;99509.75;;;21.63;50.32
25638;BME280;13496;51.040;13.680;2023-04-21T17:06:00;99501.22;;;21.61;50.27
25638;BME280;13496;51.040;13.680;2023-04-21T17:11:05;99506.72;;;21.59;50.51
25638;BME280;13496;51.040;13.680;2023-04-21T17:16:06;99505.91;;;21.59;50.50
25638;BME280;13496;51.040;13.680;2023-04-21T17:21:08;99500.84;;;21.57;50.68
25638;BME280;13496;51.040;13.680;2023-04-21T17:26:10;99505.53;;;21.55;50.48
25638;BME280;13496;51.040;13.680;2023-04-21T17:31:12;99507.56;;;21.53;50.80
25638;BME280;13496;51.040;13.680;2023-04-21T17:36:15;99512.03;;;21.53;50.61
25638;BME280;13496;51.040;13.680;2023-04-21T17:41:17;99513.50;;;21.48;50.84
25638;BME280;13496;51.040;13.680;2023-04-21T17:46:21;99504.78;;;21.48;50.89
25638;BME280;13496;51.040;13.680;2023-04-21T17:51:23;99517.59;;;21.44;51.02
25638;BME280;13496;51.040;13.680;2023-04-21T17:56:25;99509.84;;;21.43;51.16
25638;BME280;13496;51.040;13.680;2023-04-21T18:01:27;99514.56;;;21.41;51.03
25638;BME280;13496;51.040;13.680;2023-04-21T18:06:28;99519.03;;;21.40;50.99
25638;BME280;13496;51.040;13.680;2023-04-21T18:11:30;99521.28;;;21.37;51.02
25638;BME280;13496;51.040;13.680;2023-04-21T18:16:32;99525.94;;;21.35;51.15
25638;BME280;13496;51.040;13.680;2023-04-21T18:21:34;99529.63;;;21.34;51.02
25638;BME280;13496;51.040;13.680;2023-04-21T18:26:36;99536.91;;;21.32;51.33
25638;BME280;13496;51.040;13.680;2023-04-21T18:31:38;99535.69;;;21.27;51.18
25638;BME280;13496;51.040;13.680;2023-04-21T18:36:40;99537.34;;;21.29;51.18
25638;BME280;13496;51.040;13.680;2023-04-21T18:41:44;99535.69;;;21.27;51.40
25638;BME280;13496;51.040;13.680;2023-04-21T18:46:48;99538.75;;;21.24;51.13
25638;BME280;13496;51.040;13.680;2023-04-21T18:51:50;99535.31;;;21.24;51.35
25638;BME280;13496;51.040;13.680;2023-04-21T18:56:52;99538.16;;;21.22;51.35
25638;BME280;13496;51.040;13.680;2023-04-21T19:01:54;99541.84;;;21.21;51.31
25638;BME280;13496;51.040;13.680;2023-04-21T19:06:55;99538.59;;;21.19;51.67
25638;BME280;13496;51.040;13.680;2023-04-21T19:11:57;99541.44;;;21.18;51.71
25638;BME280;13496;51.040;13.680;2023-04-21T19:16:59;99539.00;;;21.16;51.68
25638;BME280;13496;51.040;13.680;2023-04-21T19:22:00;99539.22;;;21.15;51.59
25638;BME280;13496;51.040;13.680;2023-04-21T19:27:04;99545.53;;;21.14;51.81
25638;BME280;13496;51.040;13.680;2023-04-21T19:32:06;99539.88;;;21.10;51.82
25638;BME280;13496;51.040;13.680;2023-04-21T19:37:08;99537.22;;;21.10;51.74
25638;BME280;13496;51.040;13.680;2023-04-21T19:42:10;99543.72;;;21.08;51.87
25638;BME280;13496;51.040;13.680;2023-04-21T19:47:11;99538.63;;;21.06;51.82
25638;BME280;13496;51.040;13.680;2023-04-21T19:52:13;99541.50;;;21.05;51.63
25638;BME280;13496;51.040;13.680;2023-04-21T19:57:15;99532.16;;;21.02;52.06
25638;BME280;13496;51.040;13.680;2023-04-21T20:02:17;99536.63;;;21.01;51.84
25638;BME280;13496;51.040;13.680;2023-04-21T20:07:19;99533.59;;;20.98;51.94
25638;BME280;13496;51.040;13.680;2023-04-21T20:12:21;99538.88;;;20.98;51.71
25638;BME280;13496;51.040;13.680;2023-04-21T20:17:23;99541.91;;;20.95;52.25
25638;BME280;13496;51.040;13.680;2023-04-21T20:22:24;99542.94;;;20.94;51.89
25638;BME280;13496;51.040;13.680;2023-04-21T20:27:26;99545.00;;;20.92;51.65
25638;BME280;13496;51.040;13.680;2023-04-21T20:32:28;99546.00;;;20.91;51.56
25638;BME280;13496;51.040;13.680;2023-04-21T20:37:29;99550.69;;;20.89;51.59
25638;BME280;13496;51.040;13.680;2023-04-21T20:42:33;99546.44;;;20.88;51.93
25638;BME280;13496;51.040;13.680;2023-04-21T20:47:35;99552.94;;;20.85;51.69
25638;BME280;13496;51.040;13.680;2023-04-21T20:52:37;99551.91;;;20.86;51.61
25638;BME280;13496;51.040;13.680;2023-04-21T20:57:39;99554.75;;;20.85;51.68
25638;BME280;13496;51.040;13.680;2023-04-21T21:02:40;99558.63;;;20.82;51.99
25638;BME280;13496;51.040;13.680;2023-04-21T21:07:42;99558.84;;;20.81;51.75
25638;BME280;13496;51.040;13.680;2023-04-21T21:12:44;99557.41;;;20.78;51.64
25638;BME280;13496;51.040;13.680;2023-04-21T21:17:45;99561.88;;;20.77;51.69
25638;BME280;13496;51.040;13.680;2023-04-21T21:22:47;99569.78;;;20.77;51.50
25638;BME280;13496;51.040;13.680;2023-04-21T21:27:49;99565.53;;;20.76;51.42
25638;BME280;13496;51.040;13.680;2023-04-21T21:32:51;99574.44;;;20.75;51.72
25638;BME280;13496;51.040;13.680;2023-04-21T21:37:54;99575.88;;;20.71;51.81
25638;BME280;13496;51.040;13.680;2023-04-21T21:42:55;99581.56;;;20.68;51.74
25638;BME280;13496;51.040;13.680;2023-04-21T21:47:57;99585.00;;;20.69;51.66
25638;BME280;13496;51.040;13.680;2023-04-21T21:52:59;99592.31;;;20.67;51.51
25638;BME280;13496;51.040;13.680;2023-04-21T21:58:00;99586.25;;;20.66;51.42
25638;BME280;13496;51.040;13.680;2023-04-21T22:03:04;99588.25;;;20.64;51.88
25638;BME280;13496;51.040;13.680;2023-04-21T22:08:06;99600.84;;;20.62;51.54
25638;BME280;13496;51.040;13.680;2023-04-21T22:13:07;99596.56;;;20.61;51.72
25638;BME280;13496;51.040;13.680;2023-04-21T22:18:09;99594.97;;;20.60;51.55
25638;BME280;13496;51.040;13.680;2023-04-21T22:23:11;99593.53;;;20.58;51.49
25638;BME280;13496;51.040;13.680;2023-04-21T22:28:13;99591.13;;;20.56;51.54
25638;BME280;13496;51.040;13.680;2023-04-21T22:33:15;99605.31;;;20.55;51.78
25638;BME280;13496;51.040;13.680;2023-04-21T22:38:16;99602.28;;;20.51;51.71
25638;BME280;13496;51.040;13.680;2023-04-21T22:43:18;99604.09;;;20.51;51.83
25638;BME280;13496;51.040;13.680;2023-04-21T22:48:20;99608.53;;;20.50;51.39
25638;BME280;13496;51.040;13.680;2023-04-21T22:53:21;99609.75;;;20.48;51.77
25638;BME280;13496;51.040;13.680;2023-04-21T22:58:24;99610.78;;;20.47;51.35
25638;BME280;13496;51.040;13.680;2023-04-21T23:03:26;99613.00;;;20.43;51.53
25638;BME280;13496;51.040;13.680;2023-04-21T23:08:28;99614.81;;;20.43;51.46
25638;BME280;13496;51.040;13.680;2023-04-21T23:13:29;99616.84;;;20.41;51.46
25638;BME280;13496;51.040;13.680;2023-04-21T23:18:33;99611.75;;;20.39;51.28
25638;BME280;13496;51.040;13.680;2023-04-21T23:23:35;99617.25;;;20.38;51.33
25638;BME280;13496;51.040;13.680;2023-04-21T23:28:36;99608.72;;;20.36;51.66
25638;BME280;13496;51.040;13.680;2023-04-21T23:33:38;99614.00;;;20.36;51.45
25638;BME280;13496;51.040;13.680;2023-04-21T23:38:40;99614.41;;;20.33;51.51
25638;BME280;13496;51.040;13.680;2023-04-21T23:43:41;99609.16;;;20.33;51.55
25638;BME280;13496;51.040;13.680;2023-04-21T23:48:43;99605.91;;;20.30;51.68
25638;BME280;13496;51.040;13.680;2023-04-21T23:53:45;99595.75;;;20.27;51.49
25638;BME280;13496;51.040;13.680;2023-04-21T23:58:46;99591.50;;;20.26;51.41
